Date,TemperatureHighF,TemperatureAvgF,TemperatureLowF,DewpointHighF,DewpointAvgF,DewpointLowF,HumidityHigh,HumidityAvg,HumidityLow,PressureMaxIn,PressureMinIn,WindSpeedMaxMPH,WindSpeedAvgMPH,GustSpeedMaxMPH,PrecipitationSumIn
2013-8-1,74.0,63.7,52.0,32.0,28.4,21.0,41,28,15,0.00,40.00,14,8,24,0.00
2013-8-2,76.0,65.9,52.0,37.0,32.0,26.0,55,30,16,0.00,40.00,7,5,17,0.00
2013-8-3,79.0,68.3,54.0,37.0,29.7,19.0,45,26,11,0.00,40.00,9,6,16,0.00
2013-8-4,81.0,71.7,57.0,38.0,31.2,24.0,49,23,16,0.00,40.00,9,6,16,0.00
2013-8-5,82.0,70.3,58.0,38.0,32.0,27.0,41,26,14,0.00,40.00,11,6,19,0.00
2013-8-6,83.0,71.4,57.0,40.0,33.4,24.0,46,27,12,0.00,40.00,9,6,18,0.00
2013-8-7,76.0,63.1,55.0,38.0,32.5,28.0,43,32,20,0.00,40.00,11,5,21,0.00
2013-8-8,72.0,60.3,49.0,42.0,35.4,29.0,64,42,20,0.00,40.00,10,5,14,0.00
2013-8-9,74.0,61.0,49.0,44.0,35.1,26.0,66,41,17,0.00,40.00,9,6,17,0.00
2013-8-21,83.0,67.3,57.0,51.0,45.9,42.0,77,49,24,0.00,40.00,14,6,31,0.17
2013-8-22,76.0,66.9,57.0,51.0,39.0,29.0,68,39,21,0.00,40.00,11,6,22,0.02
2013-8-23,77.0,68.0,55.0,40.0,33.4,29.0,43,29,19,0.00,40.00,8,5,17,0.00
2013-8-24,74.0,65.8,56.0,40.0,35.6,32.0,46,33,22,0.00,40.00,10,8,21,0.00
2013-8-25,68.0,57.8,52.0,44.0,40.1,37.0,71,53,36,0.00,40.00,13,7,24,0.00
2013-8-26,74.0,63.1,52.0,48.0,39.3,30.0,72,45,23,0.00,40.00,12,8,25,0.00
2013-8-27,72.0,67.1,56.0,38.0,34.6,30.0,50,31,22,0.00,40.00,11,8,21,0.00
2013-8-28,76.0,68.8,59.0,46.0,41.8,38.0,57,39,25,0.00,40.00,12,9,25,0.00
2013-8-29,77.0,67.4,56.0,43.0,36.0,30.0,58,33,19,0.00,40.00,11,7,25,0.00
2013-8-30,83.0,73.3,58.0,37.0,29.5,22.0,42,21,12,0.00,40.00,10,7,20,0.00
2013-8-31,83.0,74.3,62.0,37.0,31.8,27.0,38,22,13,0.00,40.00,10,7,18,0.00